Talmaciu, Romania
Current Conditions -  °F | °C
As of 8:00 PM on Thursday 23 Oct 2014 (Local Time) from LRSB Reporting Station
Rain Showers Rain Showers  
Wind Chill: 44°   Ceiling: 1600
Heat Index: 46°   Visibility: 3mi
Dew Point: 46°   Wind: 5mph
Humidity: 100%   Direction: 250°WSW
Pressure: 29.68"   Gusts: NA
Location:  45.68°N, 24.27°E
Report Text: LRSB 231700Z 25004KT 5000 -SHRA BR SCT004 SCT013CB OVC01608/08 Q1005 R27/29//95
Loading
Personal Weather Stations






























Interactive Weather Map
Tropical Storm Tracking
New forecast layout! Learn more

10-Day Weather Forecast

Advertisements
Track Severe Weather on mobile